Time;durP1;ratioP1;P1;durP2;ratioP2;P2;SDS_P1;SDS_P2;PMS_P1;PMS_P2;Temp;Humidity;BMP_temperature;BMP_pressure;BME280_temperature;BME280_humidity;BME280_pressure;Samples;Min_cycle;Max_cycle;Signal;HPM_P1;HPM_P2
2023/04/24 00:02:14;;;;;;;;;;;;;;;8.55;100.00;99950.25;4942371;28;19926;-73
2023/04/24 00:04:44;;;;;;;;;;;;;;;8.61;100.00;99951.53;4957599;28;20432;-73
2023/04/24 00:07:10;;;;;;;;;;;;;;;8.59;100.00;99949.00;4940743;28;19921;-72
2023/04/24 00:09:35;;;;;;;;;;;;;;;8.59;100.00;99958.84;4939166;28;20297;-74
2023/04/24 00:12:02;;;;;;;;;;;;;;;8.62;100.00;99950.56;4940432;28;19918;-72
2023/04/24 00:14:27;;;;;;;;;;;;;;;8.74;100.00;99948.69;4954292;28;19953;-72
2023/04/24 00:16:52;;;;;;;;;;;;;;;8.64;100.00;99959.31;4960089;28;20373;-73
2023/04/24 00:19:21;;;;;;;;;;;;;;;8.77;100.00;99961.81;4957581;28;19923;-75
2023/04/24 00:21:46;;;;;;;;;;;;;;;8.63;100.00;99961.13;4945747;28;19922;-73
2023/04/24 00:24:11;;;;;;;;;;;;;;;8.65;100.00;99969.03;4963842;28;20262;-73
2023/04/24 00:26:36;;;;;;;;;;;;;;;8.63;100.00;99966.47;4975347;28;19936;-72
2023/04/24 00:29:02;;;;;;;;;;;;;;;8.64;100.00;99975.38;4952530;28;19922;-73
2023/04/24 00:31:27;;;;;;;;;;;;;;;8.64;100.00;99978.88;4969110;28;19926;-75
2023/04/24 00:33:52;;;;;;;;;;;;;;;8.59;100.00;99977.56;4944052;28;20273;-75
2023/04/24 00:36:20;;;;;;;;;;;;;;;8.65;100.00;99980.59;4951206;28;19961;-74
2023/04/24 00:38:45;;;;;;;;;;;;;;;8.63;100.00;99971.84;4948620;28;19961;-75
2023/04/24 00:41:10;;;;;;;;;;;;;;;8.64;100.00;99970.03;4946150;28;20008;-74
2023/04/24 00:43:36;;;;;;;;;;;;;;;8.61;100.00;99983.66;4939293;28;19965;-73
2023/04/24 00:46:01;;;;;;;;;;;;;;;8.66;100.00;99976.94;4939590;28;20053;-75
2023/04/24 00:48:26;;;;;;;;;;;;;;;8.59;100.00;99974.91;4946220;28;19928;-74
2023/04/24 00:50:52;;;;;;;;;;;;;;;8.63;100.00;99979.03;4955822;28;20365;-75
2023/04/24 00:53:17;;;;;;;;;;;;;;;8.62;100.00;99978.16;4947456;28;20445;-76
2023/04/24 00:55:42;;;;;;;;;;;;;;;8.64;100.00;99976.22;4938971;28;19922;-76
2023/04/24 00:58:07;;;;;;;;;;;;;;;8.57;100.00;99985.75;4931015;28;19926;-73
2023/04/24 01:00:32;;;;;;;;;;;;;;;8.60;100.00;99979.28;4949074;28;19964;-79
2023/04/24 01:02:59;;;;;;;;;;;;;;;8.61;100.00;99986.31;4932608;28;19922;-75
2023/04/24 01:05:24;;;;;;;;;;;;;;;8.53;100.00;99978.94;4952110;28;20506;-74
2023/04/24 01:07:50;;;;;;;;;;;;;;;8.65;100.00;99974.41;4947425;28;19922;-76
2023/04/24 01:10:16;;;;;;;;;;;;;;;8.72;100.00;99978.25;4941250;28;20176;-72
2023/04/24 01:12:42;;;;;;;;;;;;;;;8.57;100.00;99980.41;4936680;28;19926;-75
2023/04/24 01:15:07;;;;;;;;;;;;;;;8.50;100.00;99984.53;4928545;28;20391;-74
2023/04/24 01:17:33;;;;;;;;;;;;;;;8.45;100.00;99989.38;4932174;28;20336;-76
2023/04/24 01:19:59;;;;;;;;;;;;;;;8.42;100.00;99990.50;4943626;28;20435;-76
2023/04/24 01:22:24;;;;;;;;;;;;;;;8.44;100.00;99979.66;4932486;28;20346;-77
2023/04/24 01:24:50;;;;;;;;;;;;;;;8.38;100.00;99976.50;4956122;28;20369;-74
2023/04/24 01:27:15;;;;;;;;;;;;;;;8.47;100.00;99982.09;4936351;28;19933;-77
2023/04/24 01:29:40;;;;;;;;;;;;;;;8.41;100.00;99980.78;4937211;28;19941;-76
2023/04/24 01:32:05;;;;;;;;;;;;;;;8.41;100.00;99975.44;4948101;28;19944;-73
2023/04/24 01:34:31;;;;;;;;;;;;;;;8.39;100.00;99980.06;4923711;28;19930;-74
2023/04/24 01:36:56;;;;;;;;;;;;;;;8.36;100.00;99980.31;4937196;28;20013;-76
2023/04/24 01:39:23;;;;;;;;;;;;;;;8.31;100.00;99975.34;4958574;28;20416;-77
2023/04/24 01:41:49;;;;;;;;;;;;;;;8.29;100.00;99981.78;4944979;28;19938;-74
2023/04/24 01:44:14;;;;;;;;;;;;;;;8.15;100.00;99983.78;4935748;28;19922;-74
2023/04/24 01:46:39;;;;;;;;;;;;;;;8.14;100.00;99986.56;4940884;28;19922;-74
2023/04/24 01:49:05;;;;;;;;;;;;;;;8.19;100.00;99987.91;4937210;28;19932;-76
2023/04/24 01:51:30;;;;;;;;;;;;;;;8.10;100.00;99983.28;4944514;28;19932;-77
2023/04/24 01:53:55;;;;;;;;;;;;;;;8.01;100.00;99971.53;4942737;28;19965;-74
2023/04/24 01:56:21;;;;;;;;;;;;;;;8.01;100.00;99981.34;4954947;28;20004;-74
2023/04/24 01:58:46;;;;;;;;;;;;;;;8.04;100.00;99978.44;4935802;28;19954;-73
2023/04/24 02:01:17;;;;;;;;;;;;;;;7.93;100.00;99984.66;4938948;28;20444;-77
2023/04/24 02:03:43;;;;;;;;;;;;;;;7.90;100.00;99984.88;4941701;28;19926;-73
2023/04/24 02:06:08;;;;;;;;;;;;;;;7.91;100.00;99981.25;4935443;28;20280;-74
2023/04/24 02:08:33;;;;;;;;;;;;;;;7.87;100.00;99980.66;4938427;28;20482;-77
2023/04/24 02:10:59;;;;;;;;;;;;;;;7.90;100.00;99980.41;4941628;28;19932;-74
2023/04/24 02:13:24;;;;;;;;;;;;;;;7.91;100.00;99978.56;4961740;28;19930;-77
2023/04/24 02:15:49;;;;;;;;;;;;;;;7.94;100.00;99981.00;4943514;28;20311;-75
2023/04/24 02:18:15;;;;;;;;;;;;;;;7.98;100.00;99978.91;4952778;28;20009;-76
2023/04/24 02:20:40;;;;;;;;;;;;;;;7.87;100.00;99987.81;4939438;28;19922;-75
2023/04/24 02:23:05;;;;;;;;;;;;;;;7.89;100.00;99985.88;4941894;28;19921;-74
2023/04/24 02:25:31;;;;;;;;;;;;;;;7.89;100.00;99980.53;4953625;28;19929;-75
2023/04/24 02:27:56;;;;;;;;;;;;;;;7.89;100.00;99981.38;4938962;28;19927;-75
2023/04/24 02:30:21;;;;;;;;;;;;;;;7.88;100.00;99981.50;4950289;28;20029;-74
2023/04/24 02:32:46;;;;;;;;;;;;;;;7.85;100.00;99982.59;4934816;28;19969;-74
2023/04/24 02:35:11;;;;;;;;;;;;;;;7.90;100.00;99982.22;4945354;28;20012;-79
2023/04/24 02:37:37;;;;;;;;;;;;;;;7.92;100.00;99974.94;4942424;28;19926;-76
2023/04/24 02:40:02;;;;;;;;;;;;;;;7.87;100.00;99975.31;4934564;28;19922;-76
2023/04/24 02:42:28;;;;;;;;;;;;;;;7.87;100.00;99982.47;4937035;28;19926;-75
2023/04/24 02:44:53;;;;;;;;;;;;;;;7.90;100.00;99982.22;4925810;28;19926;-75
2023/04/24 02:47:18;;;;;;;;;;;;;;;7.82;100.00;99980.16;4952439;28;19937;-76
2023/04/24 02:49:43;;;;;;;;;;;;;;;7.77;100.00;99977.88;4930790;28;19929;-74
2023/04/24 02:52:08;;;;;;;;;;;;;;;7.78;100.00;99984.06;4943823;28;19929;-75
2023/04/24 02:54:34;;;;;;;;;;;;;;;7.76;100.00;99976.16;4943287;28;20033;-75
2023/04/24 02:57:00;;;;;;;;;;;;;;;7.76;100.00;99967.28;4930556;28;20001;-76
2023/04/24 02:59:27;;;;;;;;;;;;;;;7.73;100.00;99987.09;4942744;28;19949;-75
2023/04/24 03:01:52;;;;;;;;;;;;;;;7.78;100.00;99978.72;4956088;28;19922;-74
2023/04/24 03:04:20;;;;;;;;;;;;;;;7.75;100.00;99984.28;4955744;28;19969;-74
2023/04/24 03:06:45;;;;;;;;;;;;;;;7.71;100.00;99981.03;4941777;28;19922;-76
2023/04/24 03:09:11;;;;;;;;;;;;;;;7.71;100.00;99991.72;4962253;28;20436;-80
2023/04/24 03:11:36;;;;;;;;;;;;;;;7.70;100.00;99979.31;4946524;28;19922;-74
2023/04/24 03:14:01;;;;;;;;;;;;;;;7.68;100.00;99983.94;4953852;28;19980;-76
2023/04/24 03:16:26;;;;;;;;;;;;;;;7.71;100.00;99985.50;4959430;28;19922;-76
2023/04/24 03:18:51;;;;;;;;;;;;;;;7.68;100.00;99981.28;4953450;28;20287;-77
2023/04/24 03:21:17;;;;;;;;;;;;;;;7.63;100.00;99980.78;4961026;28;19977;-77
2023/04/24 03:23:42;;;;;;;;;;;;;;;7.68;100.00;99980.44;4952650;28;20349;-76
2023/04/24 03:26:07;;;;;;;;;;;;;;;7.67;100.00;99992.94;4941497;28;20520;-77
2023/04/24 03:28:32;;;;;;;;;;;;;;;7.60;100.00;99987.22;4932069;28;20384;-76
2023/04/24 03:30:58;;;;;;;;;;;;;;;7.68;100.00;99991.13;4938395;28;19926;-78
2023/04/24 03:33:23;;;;;;;;;;;;;;;7.70;100.00;99992.69;4962404;28;19969;-78
2023/04/24 03:35:48;;;;;;;;;;;;;;;7.61;100.00;99988.06;4945151;28;19922;-77
2023/04/24 03:38:13;;;;;;;;;;;;;;;7.67;100.00;99979.56;4952259;28;19944;-77
2023/04/24 03:40:38;;;;;;;;;;;;;;;7.67;100.00;99986.75;4946642;28;19922;-78
2023/04/24 03:43:04;;;;;;;;;;;;;;;7.67;100.00;99979.56;4933048;28;19961;-76
2023/04/24 03:45:29;;;;;;;;;;;;;;;7.64;100.00;99982.47;4942373;28;19965;-77
2023/04/24 03:47:54;;;;;;;;;;;;;;;7.65;100.00;99986.84;4959015;28;19968;-79
2023/04/24 03:50:20;;;;;;;;;;;;;;;7.60;100.00;99983.69;4941750;28;19936;-77
2023/04/24 03:52:45;;;;;;;;;;;;;;;7.68;100.00;99980.44;4948137;28;19926;-77
2023/04/24 03:55:12;;;;;;;;;;;;;;;7.68;100.00;99981.28;4966691;28;19936;-78
2023/04/24 03:57:38;;;;;;;;;;;;;;;7.62;100.00;99984.41;4951435;28;20360;-76
2023/04/24 04:00:04;;;;;;;;;;;;;;;7.61;100.00;99985.38;4946895;28;20388;-77
2023/04/24 04:02:30;;;;;;;;;;;;;;;7.75;100.00;99979.81;4966865;28;19925;-78
2023/04/24 04:04:55;;;;;;;;;;;;;;;7.60;100.00;99989.03;4967623;28;20360;-76
2023/04/24 04:07:20;;;;;;;;;;;;;;;7.62;100.00;99989.75;4964991;28;19929;-76
2023/04/24 04:09:45;;;;;;;;;;;;;;;7.59;100.00;99985.53;4947653;28;19945;-77
2023/04/24 04:12:10;;;;;;;;;;;;;;;7.74;100.00;99985.25;4966368;28;20361;-78
2023/04/24 04:14:36;;;;;;;;;;;;;;;7.77;100.00;99974.34;4968286;28;21227;-78
2023/04/24 04:17:01;;;;;;;;;;;;;;;7.74;100.00;99970.09;4959698;28;20392;-80
2023/04/24 04:19:26;;;;;;;;;;;;;;;7.65;100.00;99968.16;4972363;28;20048;-80
2023/04/24 04:21:53;;;;;;;;;;;;;;;7.66;100.00;99977.88;4955758;28;20493;-77
2023/04/24 04:24:20;;;;;;;;;;;;;;;7.84;100.00;99964.00;4955053;28;19926;-74
2023/04/24 04:26:46;;;;;;;;;;;;;;;7.69;100.00;99977.63;4954144;28;19922;-78
2023/04/24 04:29:12;;;;;;;;;;;;;;;7.70;100.00;99978.47;4948574;28;19972;-77
2023/04/24 04:31:37;;;;;;;;;;;;;;;7.67;100.00;99970.72;4965420;28;19950;-78
2023/04/24 04:34:02;;;;;;;;;;;;;;;7.62;100.00;99974.59;4936818;28;19926;-80
2023/04/24 04:36:29;;;;;;;;;;;;;;;7.67;100.00;99965.38;4947329;28;20281;-78
2023/04/24 04:38:54;;;;;;;;;;;;;;;7.77;100.00;99961.84;4951458;28;19928;-79
2023/04/24 04:41:20;;;;;;;;;;;;;;;7.65;100.00;99971.69;4972353;28;19918;-77
2023/04/24 04:43:46;;;;;;;;;;;;;;;7.57;100.00;99965.22;4951862;28;19949;-77
2023/04/24 04:46:11;;;;;;;;;;;;;;;7.48;100.00;99974.81;4963094;28;19985;-78
2023/04/24 04:48:37;;;;;;;;;;;;;;;7.50;100.00;99979.09;4951515;28;20325;-80
2023/04/24 04:51:03;;;;;;;;;;;;;;;7.53;100.00;99985.16;4952900;28;19929;-78
2023/04/24 04:53:28;;;;;;;;;;;;;;;7.48;100.00;99996.19;4936728;28;19930;-79
2023/04/24 04:55:53;;;;;;;;;;;;;;;7.38;100.00;99980.03;4939840;28;19922;-79
2023/04/24 04:58:18;;;;;;;;;;;;;;;7.44;100.00;99990.25;4937660;28;19922;-77
2023/04/24 05:00:44;;;;;;;;;;;;;;;7.42;100.00;99992.19;4946294;28;19922;-78
2023/04/24 05:03:09;;;;;;;;;;;;;;;7.32;100.00;99991.19;4957693;28;19922;-77
2023/04/24 05:05:34;;;;;;;;;;;;;;;7.32;100.00;99993.88;4960737;28;20287;-77
2023/04/24 05:07:59;;;;;;;;;;;;;;;7.26;100.00;99997.03;4939632;28;19922;-76
2023/04/24 05:10:24;;;;;;;;;;;;;;;7.31;100.00;99994.84;4958722;28;20349;-78
2023/04/24 05:12:50;;;;;;;;;;;;;;;7.34;100.00;99994.59;4926574;28;19981;-79
2023/04/24 05:15:15;;;;;;;;;;;;;;;7.33;100.00;100000.91;4943780;28;19922;-78
2023/04/24 05:17:40;;;;;;;;;;;;;;;7.31;100.00;100009.06;4940137;28;20000;-79
2023/04/24 05:20:06;;;;;;;;;;;;;;;7.32;100.00;100017.91;4942849;28;19964;-79
2023/04/24 05:22:31;;;;;;;;;;;;;;;7.37;100.00;100017.56;4941362;28;20016;-80
2023/04/24 05:24:57;;;;;;;;;;;;;;;7.38;100.00;100013.94;4938276;28;19964;-80
2023/04/24 05:27:22;;;;;;;;;;;;;;;7.34;100.00;100022.16;4955626;28;19922;-79
2023/04/24 05:29:47;;;;;;;;;;;;;;;7.34;100.00;100015.97;4940768;28;19971;-77
2023/04/24 05:32:12;;;;;;;;;;;;;;;7.37;100.00;100021.06;4953394;28;20021;-79
2023/04/24 05:34:38;;;;;;;;;;;;;;;7.39;100.00;100028.97;4939011;28;20363;-78
2023/04/24 05:37:07;;;;;;;;;;;;;;;7.35;100.00;100026.53;4942667;28;20296;-77
2023/04/24 05:39:33;;;;;;;;;;;;;;;7.37;100.00;100028.25;4939561;28;19948;-77
2023/04/24 05:41:58;;;;;;;;;;;;;;;7.26;100.00;100023.75;4939551;28;20311;-77
2023/04/24 05:44:23;;;;;;;;;;;;;;;7.35;100.00;100037.22;4936206;28;20412;-77
2023/04/24 05:46:48;;;;;;;;;;;;;;;7.34;100.00;100040.88;4959679;28;19930;-77
2023/04/24 05:49:14;;;;;;;;;;;;;;;7.37;100.00;100037.09;4943365;28;19918;-77
2023/04/24 05:51:39;;;;;;;;;;;;;;;7.37;100.00;100047.78;4940839;28;20007;-77
2023/04/24 05:54:05;;;;;;;;;;;;;;;7.43;100.00;100043.78;4940519;28;20443;-78
2023/04/24 05:56:30;;;;;;;;;;;;;;;7.30;100.00;100035.84;4924806;28;19922;-76
2023/04/24 05:58:55;;;;;;;;;;;;;;;7.23;100.00;100032.81;4938912;28;20345;-77
2023/04/24 06:01:21;;;;;;;;;;;;;;;7.19;100.00;100036.69;4942703;28;19931;-76
2023/04/24 06:03:46;;;;;;;;;;;;;;;7.22;100.00;100035.63;4933296;28;19961;-75
2023/04/24 06:06:11;;;;;;;;;;;;;;;7.25;100.00;100041.56;4943946;28;20001;-76
2023/04/24 06:08:37;;;;;;;;;;;;;;;7.14;100.00;100039.72;4935775;28;20022;-75
2023/04/24 06:11:02;;;;;;;;;;;;;;;7.12;100.00;100049.66;4937560;28;19933;-75
2023/04/24 06:13:27;;;;;;;;;;;;;;;7.06;100.00;100058.13;4935374;28;20393;-75
2023/04/24 06:15:52;;;;;;;;;;;;;;;7.15;100.00;100057.44;4943320;28;20420;-76
2023/04/24 06:18:18;;;;;;;;;;;;;;;7.22;100.00;100068.50;4921044;28;20381;-75
2023/04/24 06:20:43;;;;;;;;;;;;;;;7.17;100.00;100065.31;4958658;28;19928;-75
2023/04/24 06:23:08;;;;;;;;;;;;;;;7.16;100.00;100064.47;4953884;28;19968;-76
2023/04/24 06:25:33;;;;;;;;;;;;;;;7.27;100.00;100073.50;4954681;28;19930;-76
2023/04/24 06:27:59;;;;;;;;;;;;;;;7.31;100.00;100083.81;4958343;28;19929;-76
2023/04/24 06:30:24;;;;;;;;;;;;;;;7.16;100.00;100093.84;4936703;28;19948;-76
2023/04/24 06:32:50;;;;;;;;;;;;;;;7.16;100.00;100088.50;4949001;28;19929;-79
2023/04/24 06:35:15;;;;;;;;;;;;;;;7.28;100.00;100091.22;4944648;28;20017;-75
2023/04/24 06:37:41;;;;;;;;;;;;;;;7.26;100.00;100111.84;4943230;28;20143;-77
2023/04/24 06:40:06;;;;;;;;;;;;;;;7.32;100.00;100114.03;4938507;28;19938;-76
2023/04/24 06:42:32;;;;;;;;;;;;;;;7.37;100.00;100114.53;4945992;28;19918;-76
2023/04/24 06:44:57;;;;;;;;;;;;;;;7.37;100.00;100121.72;4958748;28;20392;-75
2023/04/24 06:47:22;;;;;;;;;;;;;;;7.41;100.00;100137.38;4929673;28;19966;-79
2023/04/24 06:49:47;;;;;;;;;;;;;;;7.41;100.00;100141.88;4945717;28;19925;-78
2023/04/24 06:52:13;;;;;;;;;;;;;;;7.41;100.00;100152.56;4947269;28;20293;-78
2023/04/24 06:54:38;;;;;;;;;;;;;;;7.48;100.00;100156.47;4946930;28;20092;-78
2023/04/24 06:57:03;;;;;;;;;;;;;;;7.43;100.00;100155.94;4939892;28;19929;-76
2023/04/24 06:59:29;;;;;;;;;;;;;;;7.50;100.00;100157.19;4948841;28;20060;-79
2023/04/24 07:01:54;;;;;;;;;;;;;;;7.53;100.00;100164.13;4948454;28;19922;-77
2023/04/24 07:04:20;;;;;;;;;;;;;;;7.52;100.00;100171.28;4941973;28;19922;-78
2023/04/24 07:06:45;;;;;;;;;;;;;;;7.51;100.00;100166.91;4947528;28;19977;-78
2023/04/24 07:09:11;;;;;;;;;;;;;;;7.59;100.00;100179.69;4961090;28;19926;-79
2023/04/24 07:11:38;;;;;;;;;;;;;;;7.58;100.00;100172.63;4950205;28;19969;-78
2023/04/24 07:14:03;;;;;;;;;;;;;;;7.50;100.00;100182.09;4950570;28;19927;-79
2023/04/24 07:16:28;;;;;;;;;;;;;;;7.53;100.00;100190.84;4946495;28;19922;-81
2023/04/24 07:18:53;;;;;;;;;;;;;;;7.48;100.00;100192.06;4945217;28;19957;-78
2023/04/24 07:21:19;;;;;;;;;;;;;;;7.53;100.00;100201.53;4965658;28;20012;-80
2023/04/24 07:23:44;;;;;;;;;;;;;;;7.56;100.00;100191.47;4936472;28;19922;-80
2023/04/24 07:26:09;;;;;;;;;;;;;;;7.53;100.00;100205.03;4960804;28;19922;-79
2023/04/24 07:28:35;;;;;;;;;;;;;;;7.49;100.00;100208.91;4950908;28;19922;-77
2023/04/24 07:31:00;;;;;;;;;;;;;;;7.54;100.00;100211.25;4943451;28;20361;-78
2023/04/24 07:33:25;;;;;;;;;;;;;;;7.48;100.00;100212.56;4947906;28;20053;-78
2023/04/24 07:35:51;;;;;;;;;;;;;;;7.52;100.00;100221.22;4944156;28;19922;-79
2023/04/24 07:38:16;;;;;;;;;;;;;;;7.47;100.00;100242.91;4942083;28;19922;-80
2023/04/24 07:40:41;;;;;;;;;;;;;;;7.31;100.00;100245.84;4942115;28;19922;-78
2023/04/24 07:43:06;;;;;;;;;;;;;;;7.29;100.00;100264.66;4955781;28;19922;-78
2023/04/24 07:45:35;;;;;;;;;;;;;;;7.24;100.00;100263.31;4945811;28;19929;-80
2023/04/24 07:48:01;;;;;;;;;;;;;;;7.18;100.00;100276.13;4945439;28;19922;-77
2023/04/24 07:50:26;;;;;;;;;;;;;;;7.15;100.00;100279.03;4961255;28;19922;-79
2023/04/24 07:52:51;;;;;;;;;;;;;;;7.14;100.00;100295.16;4942254;28;19926;-79
2023/04/24 07:55:16;;;;;;;;;;;;;;;7.18;100.00;100304.63;4945127;28;19929;-79
2023/04/24 07:57:41;;;;;;;;;;;;;;;7.16;100.00;100311.91;4942182;28;19928;-78
2023/04/24 08:00:07;;;;;;;;;;;;;;;7.13;100.00;100317.50;4990746;23;19930;-76
2023/04/24 08:02:33;;;;;;;;;;;;;;;7.11;100.00;100327.41;4983693;28;20052;-75
2023/04/24 08:04:58;;;;;;;;;;;;;;;7.09;100.00;100334.69;4986588;28;19928;-77
2023/04/24 08:07:23;;;;;;;;;;;;;;;7.09;100.00;100332.00;4986866;28;19926;-76
2023/04/24 08:09:48;;;;;;;;;;;;;;;7.04;100.00;100353.69;4979347;28;19975;-75
2023/04/24 08:12:14;;;;;;;;;;;;;;;7.03;100.00;100351.97;4959241;28;19969;-76
2023/04/24 08:14:39;;;;;;;;;;;;;;;7.02;100.00;100361.81;4982028;28;20020;-77
2023/04/24 08:17:04;;;;;;;;;;;;;;;7.04;100.00;100357.22;4994657;28;20353;-77
2023/04/24 08:19:29;;;;;;;;;;;;;;;7.07;100.00;100368.63;5012447;28;20309;-78
2023/04/24 08:21:55;;;;;;;;;;;;;;;7.16;100.00;100371.50;4961183;28;19949;-76
2023/04/24 08:24:20;;;;;;;;;;;;;;;7.17;100.00;100375.88;4979260;28;19930;-77
2023/04/24 08:26:45;;;;;;;;;;;;;;;7.23;100.00;100397.78;4970097;28;20224;-76
2023/04/24 08:29:10;;;;;;;;;;;;;;;7.23;100.00;100398.63;4986048;28;19929;-76
2023/04/24 08:31:36;;;;;;;;;;;;;;;7.29;100.00;100398.19;4984082;28;19930;-78
2023/04/24 08:34:01;;;;;;;;;;;;;;;7.43;100.00;100407.03;4982904;28;20827;-76
2023/04/24 08:36:26;;;;;;;;;;;;;;;7.41;100.00;100412.47;4979983;28;19921;-77
2023/04/24 08:38:51;;;;;;;;;;;;;;;7.38;100.00;100433.22;4977280;28;19921;-76
2023/04/24 08:41:17;;;;;;;;;;;;;;;7.38;100.00;100431.41;4978336;28;20053;-76
2023/04/24 08:43:43;;;;;;;;;;;;;;;7.45;100.00;100438.03;4966196;28;19925;-77
2023/04/24 08:46:09;;;;;;;;;;;;;;;7.46;100.00;100438.84;4978911;28;20372;-77
2023/04/24 08:48:34;;;;;;;;;;;;;;;7.45;100.00;100434.47;4974227;28;20379;-77
2023/04/24 08:51:01;;;;;;;;;;;;;;;7.39;100.00;100445.63;4976311;28;19922;-75
2023/04/24 08:53:26;;;;;;;;;;;;;;;7.41;100.00;100447.22;4981901;28;19926;-76
2023/04/24 08:55:52;;;;;;;;;;;;;;;7.48;100.00;100450.28;4977202;28;20103;-78
2023/04/24 08:58:17;;;;;;;;;;;;;;;7.40;100.00;100464.19;4991324;28;20136;-77
2023/04/24 09:00:46;;;;;;;;;;;;;;;7.33;100.00;100470.91;4980415;28;20460;-75
2023/04/24 09:03:11;;;;;;;;;;;;;;;7.44;100.00;100475.50;5009591;28;19933;-76
2023/04/24 09:05:37;;;;;;;;;;;;;;;7.40;100.00;100477.56;4960387;28;19922;-76
2023/04/24 09:08:02;;;;;;;;;;;;;;;7.47;100.00;100481.50;4991919;28;19922;-75
2023/04/24 09:10:30;;;;;;;;;;;;;;;7.61;100.00;100485.88;5009736;28;19965;-76
2023/04/24 09:12:56;;;;;;;;;;;;;;;7.61;100.00;100483.19;4991847;28;19932;-75
2023/04/24 09:15:21;;;;;;;;;;;;;;;7.86;100.00;100492.13;4991779;28;19926;-76
2023/04/24 09:17:46;;;;;;;;;;;;;;;7.94;100.00;100487.09;4977825;28;20052;-76
2023/04/24 09:20:12;;;;;;;;;;;;;;;8.03;100.00;100500.75;4977454;28;19921;-74
2023/04/24 09:22:37;;;;;;;;;;;;;;;8.23;100.00;100504.63;4991887;28;20065;-77
2023/04/24 09:25:06;;;;;;;;;;;;;;;8.32;100.00;100503.97;4976553;28;20044;-75
2023/04/24 09:27:32;;;;;;;;;;;;;;;8.39;100.00;100507.88;4977285;28;19945;-76
2023/04/24 09:29:57;;;;;;;;;;;;;;;8.37;100.00;100509.81;4977796;28;19921;-76
2023/04/24 09:32:24;;;;;;;;;;;;;;;8.35;100.00;100516.25;4983757;28;19929;-75
2023/04/24 09:34:50;;;;;;;;;;;;;;;8.14;100.00;100530.25;4981866;28;19965;-74
2023/04/24 09:37:27;;;;;;;;;;;;;;;8.13;100.00;100525.00;4979953;28;20044;-74
2023/04/24 09:40:08;;;;;;;;;;;;;;;8.23;100.00;100539.41;4979685;28;19928;-75
2023/04/24 09:42:33;;;;;;;;;;;;;;;8.49;100.00;100534.00;4975207;28;20574;-75
2023/04/24 09:44:58;;;;;;;;;;;;;;;8.62;100.00;100552.66;4978915;28;19917;-76
2023/04/24 09:47:24;;;;;;;;;;;;;;;8.28;100.00;100542.59;4975430;28;19965;-73
2023/04/24 09:49:49;;;;;;;;;;;;;;;8.38;100.00;100550.81;4977649;28;20000;-76
2023/04/24 09:52:15;;;;;;;;;;;;;;;8.29;100.00;100547.00;4978399;28;19922;-74
2023/04/24 09:54:40;;;;;;;;;;;;;;;8.24;100.00;100547.31;4977194;28;20017;-75
2023/04/24 09:57:07;;;;;;;;;;;;;;;8.17;100.00;100554.09;4991887;28;20418;-75
2023/04/24 09:59:32;;;;;;;;;;;;;;;8.21;100.00;100558.22;4974157;28;19925;-74
2023/04/24 10:01:58;;;;;;;;;;;;;;;8.38;100.00;100562.34;4981247;28;19929;-75
2023/04/24 10:04:26;;;;;;;;;;;;;;;8.48;100.00;100556.34;4994626;28;20004;-74
2023/04/24 10:06:52;;;;;;;;;;;;;;;8.61;100.00;100573.22;4981164;28;20004;-74
2023/04/24 10:09:18;;;;;;;;;;;;;;;8.68;100.00;100568.28;4996431;28;20621;-75
2023/04/24 10:11:45;;;;;;;;;;;;;;;8.74;100.00;100581.19;4982416;28;19926;-76
2023/04/24 10:14:12;;;;;;;;;;;;;;;8.71;100.00;100581.44;4981078;28;19988;-72
2023/04/24 10:16:38;;;;;;;;;;;;;;;8.64;100.00;100581.00;4980787;28;19921;-74
2023/04/24 10:19:03;;;;;;;;;;;;;;;8.52;100.00;100582.78;4981594;28;20673;-73
2023/04/24 10:21:28;;;;;;;;;;;;;;;8.35;100.00;100585.81;4982298;28;20501;-73
2023/04/24 10:23:54;;;;;;;;;;;;;;;8.43;100.00;100594.13;4996248;28;19921;-72
2023/04/24 10:26:19;;;;;;;;;;;;;;;8.35;100.00;100600.03;4979365;28;19921;-73
2023/04/24 10:28:47;;;;;;;;;;;;;;;8.38;100.00;100599.81;4981024;28;19941;-73
2023/04/24 10:31:13;;;;;;;;;;;;;;;8.37;100.00;100599.94;4982778;28;20284;-72
2023/04/24 10:33:40;;;;;;;;;;;;;;;8.59;100.00;100604.63;4983369;28;19935;-72
2023/04/24 10:36:05;;;;;;;;;;;;;;;8.75;100.00;100609.66;4981872;28;20316;-72
2023/04/24 10:38:31;;;;;;;;;;;;;;;8.82;100.00;100610.09;4978285;28;20015;-72
2023/04/24 10:41:22;;;;;;;;;;;;;;;8.79;100.00;100619.19;4978677;28;19964;-72
2023/04/24 10:43:50;;;;;;;;;;;;;;;8.81;100.00;100619.09;4997713;28;20371;-72
2023/04/24 10:46:19;;;;;;;;;;;;;;;8.59;100.00;100617.13;4982167;28;19922;-72
2023/04/24 10:48:45;;;;;;;;;;;;;;;8.67;100.00;100634.31;4983135;28;19921;-72
2023/04/24 10:51:11;;;;;;;;;;;;;;;8.45;100.00;100635.03;4982036;28;19922;-73
2023/04/24 10:53:36;;;;;;;;;;;;;;;8.30;100.00;100641.44;4981777;28;19937;-72
2023/04/24 10:56:09;;;;;;;;;;;;;;;8.18;100.00;100649.41;4981446;28;19926;-72
2023/04/24 10:58:44;;;;;;;;;;;;;;;8.20;100.00;100647.47;4983584;28;19922;-72
2023/04/24 11:01:11;;;;;;;;;;;;;;;8.41;100.00;100636.19;4980907;28;19921;-73
2023/04/24 11:03:36;;;;;;;;;;;;;;;8.80;100.00;100634.28;4996363;28;19972;-72
2023/04/24 11:06:08;;;;;;;;;;;;;;;9.05;100.00;100640.50;4984494;28;19957;-71
2023/04/24 11:08:43;;;;;;;;;;;;;;;9.70;100.00;100643.66;4979182;28;19922;-72
2023/04/24 11:11:13;;;;;;;;;;;;;;;9.92;100.00;100644.66;4979692;28;19945;-72
2023/04/24 11:13:54;;;;;;;;;;;;;;;10.64;100.00;100626.47;4976565;28;19925;-72
2023/04/24 11:16:29;;;;;;;;;;;;;;;10.67;100.00;100638.78;4979855;28;19921;-73
2023/04/24 11:19:00;;;;;;;;;;;;;;;10.29;100.00;100632.81;4979768;28;19922;-72
2023/04/24 11:21:26;;;;;;;;;;;;;;;10.01;100.00;100649.31;4980430;28;20040;-74
2023/04/24 11:23:51;;;;;;;;;;;;;;;9.81;100.00;100642.81;4963096;28;19925;-72
2023/04/24 11:26:21;;;;;;;;;;;;;;;9.80;100.00;100653.66;4995447;28;20400;-73
2023/04/24 11:28:47;;;;;;;;;;;;;;;9.73;100.00;100648.78;4979026;28;20033;-72
2023/04/24 11:31:31;;;;;;;;;;;;;;;9.68;100.00;100663.47;4994892;28;20008;-73
2023/04/24 11:33:56;;;;;;;;;;;;;;;9.32;100.00;100666.16;4980881;28;20110;-70
2023/04/24 11:36:21;;;;;;;;;;;;;;;9.18;100.00;100669.88;4980553;28;20547;-72
2023/04/24 11:38:47;;;;;;;;;;;;;;;9.19;100.00;100663.56;4963209;28;20443;-72
2023/04/24 11:41:12;;;;;;;;;;;;;;;9.08;100.00;100668.88;4980144;28;20387;-71
2023/04/24 11:43:37;;;;;;;;;;;;;;;8.84;100.00;100680.44;4979938;28;19960;-73
2023/04/24 11:46:02;;;;;;;;;;;;;;;8.76;100.00;100680.97;4993455;28;20110;-72
2023/04/24 11:48:28;;;;;;;;;;;;;;;8.65;100.00;100687.09;4961158;28;20111;-72
2023/04/24 11:50:53;;;;;;;;;;;;;;;8.55;100.00;100694.09;4981440;28;19968;-72
2023/04/24 11:53:19;;;;;;;;;;;;;;;8.48;100.00;100707.03;4982933;28;20783;-72
2023/04/24 11:55:44;;;;;;;;;;;;;;;8.36;100.00;100707.91;4979258;28;20696;-72
2023/04/24 11:58:09;;;;;;;;;;;;;;;8.33;100.00;100711.66;4994236;28;19937;-72
2023/04/24 12:00:35;;;;;;;;;;;;;;;8.23;100.00;100714.09;4958753;28;20489;-71
2023/04/24 12:03:05;;;;;;;;;;;;;;;8.15;100.00;100713.81;4994841;28;20403;-71
2023/04/24 12:05:34;;;;;;;;;;;;;;;8.34;100.00;100720.53;4994262;28;20460;-72
2023/04/24 12:07:59;;;;;;;;;;;;;;;8.61;100.00;100712.38;4978206;28;19921;-71
2023/04/24 12:10:25;;;;;;;;;;;;;;;8.76;100.00;100728.31;4994261;28;19929;-72
2023/04/24 12:12:51;;;;;;;;;;;;;;;8.72;100.00;100722.34;4993770;28;19922;-73
2023/04/24 12:15:17;;;;;;;;;;;;;;;8.95;100.00;100727.84;4976608;28;19928;-72
2023/04/24 12:17:42;;;;;;;;;;;;;;;9.08;100.00;100725.97;4978250;28;19945;-72
2023/04/24 12:20:08;;;;;;;;;;;;;;;9.40;100.00;100720.06;4994101;28;19921;-71
2023/04/24 12:23:02;;;;;;;;;;;;;;;9.66;100.00;100730.63;4979530;28;19950;-73
2023/04/24 12:25:28;;;;;;;;;;;;;;;10.10;100.00;100721.97;4991474;28;19991;-72
2023/04/24 12:28:14;;;;;;;;;;;;;;;11.17;100.00;100727.78;4993089;28;19922;-72
2023/04/24 12:30:48;;;;;;;;;;;;;;;11.18;100.00;100718.75;4977252;28;19929;-73
2023/04/24 12:33:20;;;;;;;;;;;;;;;11.27;100.00;100733.25;4994403;28;19949;-72
2023/04/24 12:35:45;;;;;;;;;;;;;;;11.58;100.00;100719.97;4978640;28;19979;-72